createdAt,value
2018-07-27T00:00:10.047Z,101098.52
2018-07-27T00:01:16.116Z,101095.47
2018-07-27T00:02:21.670Z,101099.31
2018-07-27T00:03:27.143Z,101095.73
2018-07-27T00:04:32.617Z,101091.70
2018-07-27T00:05:38.219Z,101094.75
2018-07-27T00:06:43.837Z,101094.54
2018-07-27T00:07:49.314Z,101091.91
2018-07-27T00:08:54.760Z,101094.45
2018-07-27T00:10:00.165Z,101093.97
2018-07-27T00:11:06.086Z,101097.66
2018-07-27T00:12:11.813Z,101100.91
2018-07-27T00:13:17.429Z,101102.11
2018-07-27T00:14:22.919Z,101095.33
2018-07-27T00:15:28.314Z,101098.50
2018-07-27T00:16:33.776Z,101097.78
2018-07-27T00:17:39.386Z,101098.27
2018-07-27T00:18:44.920Z,101099.58
2018-07-27T00:19:50.416Z,101100.08
2018-07-27T00:20:55.869Z,101096.34
2018-07-27T00:22:01.292Z,101102.45
2018-07-27T00:23:06.796Z,101095.64
2018-07-27T00:24:12.506Z,101096.88
2018-07-27T00:25:18.025Z,101096.46
2018-07-27T00:26:23.534Z,101095.14
2018-07-27T00:27:29.156Z,101099.46
2018-07-27T00:28:34.562Z,101099.01
2018-07-27T00:29:40.865Z,101097.78
2018-07-27T00:30:46.412Z,101096.09
2018-07-27T00:31:51.835Z,101098.97
2018-07-27T00:32:57.241Z,101099.79
2018-07-27T00:34:02.713Z,101102.91
2018-07-27T00:35:08.373Z,101097.53
2018-07-27T00:36:13.939Z,101103.77
2018-07-27T00:37:19.490Z,101104.02
2018-07-27T00:38:24.981Z,101097.45
2018-07-27T00:39:30.514Z,101101.27
2018-07-27T00:40:36.446Z,101098.43
2018-07-27T00:41:42.025Z,101096.38
2018-07-27T00:42:47.496Z,101095.55
2018-07-27T00:43:53.005Z,101096.88
2018-07-27T00:44:58.457Z,101093.91
2018-07-27T00:46:03.888Z,101093.79
2018-07-27T00:47:09.840Z,101089.55
2018-07-27T00:48:15.768Z,101094.89
2018-07-27T00:49:21.249Z,101092.97
2018-07-27T00:50:26.705Z,101098.83
2018-07-27T00:51:32.179Z,101101.63
2018-07-27T00:52:37.672Z,101099.36
2018-07-27T00:53:43.241Z,101097.22
2018-07-27T00:54:48.732Z,101090.19
2018-07-27T00:55:54.224Z,101089.49
2018-07-27T00:56:59.685Z,101088.30
2018-07-27T00:58:05.179Z,101089.40
2018-07-27T00:59:10.976Z,101090.71
2018-07-27T01:00:17.233Z,101087.84
2018-07-27T01:01:22.700Z,101084.50
2018-07-27T01:02:28.151Z,101080.59
2018-07-27T01:03:33.572Z,101083.83
2018-07-27T01:04:39.265Z,101082.88
2018-07-27T01:05:44.842Z,101081.20
2018-07-27T01:06:50.262Z,101086.82
2018-07-27T01:07:55.738Z,101083.16
2018-07-27T01:09:01.266Z,101078.11
2018-07-27T01:10:06.953Z,101084.80
2018-07-27T01:11:12.498Z,101085.53
2018-07-27T01:12:18.038Z,101091.39
2018-07-27T01:13:23.502Z,101083.39
2018-07-27T01:14:28.940Z,101088.77
2018-07-27T01:15:34.388Z,101084.13
2018-07-27T01:16:39.983Z,101084.24
2018-07-27T01:17:45.714Z,101084.24
2018-07-27T01:18:51.145Z,101084.73
2018-07-27T01:19:56.644Z,101084.63
2018-07-27T01:21:02.095Z,101084.27
2018-07-27T01:22:07.785Z,101082.01
2018-07-27T01:23:13.433Z,101085.60
2018-07-27T01:24:18.872Z,101086.33
2018-07-27T01:25:24.273Z,101080.73
2018-07-27T01:26:29.717Z,101082.55
2018-07-27T01:27:35.234Z,101076.57
2018-07-27T01:28:41.008Z,101074.67
2018-07-27T01:29:46.549Z,101074.42
2018-07-27T01:30:52.008Z,101073.96
2018-07-27T01:31:57.420Z,101073.50
2018-07-27T01:33:02.923Z,101074.55
2018-07-27T01:34:08.618Z,101072.66
2018-07-27T01:35:14.175Z,101071.36
2018-07-27T01:36:19.617Z,101073.12
2018-07-27T01:37:25.089Z,101073.98
2018-07-27T01:38:30.533Z,101075.50
2018-07-27T01:39:35.962Z,101073.20
2018-07-27T01:40:41.625Z,101067.50
2018-07-27T01:41:47.141Z,101070.73
2018-07-27T01:42:52.632Z,101075.50
2018-07-27T01:43:58.073Z,101074.67
2018-07-27T01:45:03.533Z,101071.32
2018-07-27T01:46:09.197Z,101071.32
2018-07-27T01:47:14.695Z,101077.16
2018-07-27T01:48:20.209Z,101075.52
2018-07-27T01:49:25.605Z,101076.84
2018-07-27T01:50:31.072Z,101075.98
2018-07-27T01:51:36.665Z,101079.46
2018-07-27T01:52:42.322Z,101073.84
2018-07-27T01:53:47.793Z,101076.47
2018-07-27T01:54:53.249Z,101073.95
2018-07-27T01:55:59.280Z,101077.57
2018-07-27T01:57:04.768Z,101074.58
2018-07-27T01:58:10.705Z,101074.69
2018-07-27T01:59:16.633Z,101070.66
2018-07-27T02:00:22.060Z,101073.77
2018-07-27T02:01:27.436Z,101071.97
2018-07-27T02:02:32.911Z,101070.05
2018-07-27T02:03:38.397Z,101071.48
2018-07-27T02:04:43.981Z,101076.49
2018-07-27T02:05:49.463Z,101063.72
2018-07-27T02:06:54.902Z,101067.92
2018-07-27T02:08:00.708Z,101061.81
2018-07-27T02:09:09.828Z,101067.55
2018-07-27T02:10:15.361Z,101065.52
2018-07-27T02:11:20.791Z,101068.38
2018-07-27T02:12:26.248Z,101063.51
2018-07-27T02:13:31.761Z,101064.82
2018-07-27T02:14:37.369Z,101064.83
2018-07-27T02:15:42.912Z,101061.72
2018-07-27T02:16:48.378Z,101063.03
2018-07-27T02:17:53.759Z,101061.23
2018-07-27T02:18:59.200Z,101059.81
2018-07-27T02:20:04.830Z,101057.31
2018-07-27T02:21:10.856Z,101058.14
2018-07-27T02:22:16.412Z,101059.11
2018-07-27T02:23:21.801Z,101059.83
2018-07-27T02:24:27.185Z,101059.34
2018-07-27T02:25:32.657Z,101056.69
2018-07-27T02:26:38.145Z,101060.55
2018-07-27T02:27:43.704Z,101054.19
2018-07-27T02:28:49.152Z,101054.41
2018-07-27T02:29:54.616Z,101051.08
2018-07-27T02:31:00.072Z,101052.39
2018-07-27T02:32:05.915Z,101054.78
2018-07-27T02:33:11.587Z,101043.09
2018-07-27T02:34:17.105Z,101046.06
2018-07-27T02:35:22.913Z,101050.25
2018-07-27T02:36:28.319Z,101058.13
2018-07-27T02:37:33.818Z,101054.30
2018-07-27T02:38:39.404Z,101053.22
2018-07-27T02:39:45.014Z,101055.84
2018-07-27T02:40:50.460Z,101056.44
2018-07-27T02:41:55.873Z,101054.53
2018-07-27T02:43:01.298Z,101054.30
2018-07-27T02:44:06.904Z,101051.91
2018-07-27T02:45:12.542Z,101053.59
2018-07-27T02:46:18.069Z,101054.53
2018-07-27T02:47:23.492Z,101048.95
2018-07-27T02:48:28.981Z,101041.91
2018-07-27T02:49:34.420Z,101041.91
2018-07-27T02:50:39.963Z,101044.41
2018-07-27T02:51:45.461Z,101048.34
2018-07-27T02:52:50.932Z,101046.44
2018-07-27T02:53:56.765Z,101048.20
2018-07-27T02:55:02.200Z,101046.29
2018-07-27T02:56:08.074Z,101049.62
2018-07-27T02:57:13.940Z,101047.25
2018-07-27T02:58:19.663Z,101047.00
2018-07-27T02:59:25.142Z,101044.97
2018-07-27T03:00:30.572Z,101047.70
2018-07-27T03:01:35.982Z,101045.08
2018-07-27T03:02:41.648Z,101051.14
2018-07-27T03:03:47.210Z,101041.41
2018-07-27T03:04:52.652Z,101051.51
2018-07-27T03:05:58.491Z,101057.69
2018-07-27T03:07:03.660Z,101055.77
2018-07-27T03:08:09.681Z,101058.05
2018-07-27T03:09:15.343Z,101056.25
2018-07-27T03:10:21.233Z,101053.73
2018-07-27T03:11:26.628Z,101056.36
2018-07-27T03:12:32.094Z,101055.16
2018-07-27T03:13:37.569Z,101061.44
2018-07-27T03:14:43.139Z,101053.31
2018-07-27T03:15:48.740Z,101057.02
2018-07-27T03:16:54.145Z,101058.80
2018-07-27T03:17:59.579Z,101055.81
2018-07-27T03:19:05.076Z,101058.54
2018-07-27T03:20:11.157Z,101052.25
2018-07-27T03:21:17.308Z,101056.41
2018-07-27T03:22:22.731Z,101057.60
2018-07-27T03:23:28.132Z,101056.98
2018-07-27T03:24:33.578Z,101058.03
2018-07-27T03:25:39.563Z,101054.58
2018-07-27T03:26:45.069Z,101054.09
2018-07-27T03:27:50.730Z,101054.34
2018-07-27T03:28:56.174Z,101059.34
2018-07-27T03:30:01.594Z,101053.97
2018-07-27T03:31:07.070Z,101054.94
2018-07-27T03:32:12.628Z,101049.70
2018-07-27T03:33:18.260Z,101052.32
2018-07-27T03:34:23.707Z,101051.13
2018-07-27T03:35:29.106Z,101055.50
2018-07-27T03:36:34.508Z,101053.87
2018-07-27T03:37:40.250Z,101058.28
2018-07-27T03:38:45.926Z,101053.27
2018-07-27T03:39:51.352Z,101054.58
2018-07-27T03:40:56.764Z,101049.72
2018-07-27T03:42:02.235Z,101050.31
2018-07-27T03:43:07.442Z,101054.24
2018-07-27T03:44:13.233Z,101060.03
2018-07-27T03:45:18.820Z,101053.16
2018-07-27T03:46:24.242Z,101056.97
2018-07-27T03:47:29.708Z,101058.17
2018-07-27T03:48:35.181Z,101053.38
2018-07-27T03:49:40.675Z,101058.39
2018-07-27T03:50:46.388Z,101052.43
2018-07-27T03:51:51.866Z,101049.80
2018-07-27T03:52:57.338Z,101050.03
2018-07-27T03:54:02.806Z,101047.30
2018-07-27T03:55:08.432Z,101047.64
2018-07-27T03:56:14.314Z,101044.77
2018-07-27T03:57:19.732Z,101048.11
2018-07-27T03:58:25.192Z,101050.24
2018-07-27T03:59:30.660Z,101049.05
2018-07-27T04:00:36.094Z,101050.71
2018-07-27T04:01:41.734Z,101052.72
2018-07-27T04:02:47.292Z,101052.69
2018-07-27T04:03:52.748Z,101051.63
2018-07-27T04:04:58.188Z,101048.88
2018-07-27T04:06:03.700Z,101049.00
2018-07-27T04:07:09.704Z,101052.11
2018-07-27T04:08:15.257Z,101048.41
2018-07-27T04:09:20.732Z,101051.52
2018-07-27T04:10:26.192Z,101045.95
2018-07-27T04:11:31.585Z,101053.56
2018-07-27T04:12:37.109Z,101050.80
2018-07-27T04:13:43.151Z,101051.63
2018-07-27T04:14:50.828Z,101054.95
2018-07-27T04:15:56.264Z,101052.23
2018-07-27T04:17:01.795Z,101058.91
2018-07-27T04:18:07.366Z,101053.34
2018-07-27T04:19:13.161Z,101064.66
2018-07-27T04:20:18.645Z,101050.75
2018-07-27T04:21:24.096Z,101051.86
2018-07-27T04:22:29.545Z,101058.65
2018-07-27T04:23:34.962Z,101056.41
2018-07-27T04:24:40.766Z,101055.48
2018-07-27T04:25:46.410Z,101054.81
2018-07-27T04:26:51.825Z,101063.99
2018-07-27T04:27:57.277Z,101061.16
2018-07-27T04:29:02.783Z,101054.72
2018-07-27T04:30:08.449Z,101059.15
2018-07-27T04:31:14.554Z,101060.46
2018-07-27T04:32:19.992Z,101058.67
2018-07-27T04:33:25.443Z,101060.36
2018-07-27T04:34:30.949Z,101058.45
2018-07-27T04:35:36.404Z,101060.48
2018-07-27T04:37:46.559Z,101068.98
2018-07-27T04:38:51.973Z,101070.66
2018-07-27T04:39:57.428Z,101065.78
2018-07-27T04:41:02.861Z,101064.70
2018-07-27T04:42:08.501Z,101064.84
2018-07-27T04:43:14.202Z,101073.05
2018-07-27T04:44:19.667Z,101068.77
2018-07-27T04:45:25.139Z,101066.95
2018-07-27T04:46:30.621Z,101069.45
2018-07-27T04:47:36.141Z,101070.87
2018-07-27T04:48:42.010Z,101072.78
2018-07-27T04:49:47.521Z,101072.31
2018-07-27T04:50:52.982Z,101076.84
2018-07-27T04:51:58.477Z,101074.55
2018-07-27T04:53:04.003Z,101072.63
2018-07-27T04:54:09.715Z,101078.02
2018-07-27T04:55:15.590Z,101078.95
2018-07-27T04:56:21.025Z,101079.08
2018-07-27T04:57:26.429Z,101079.80
2018-07-27T04:58:31.874Z,101075.73
2018-07-27T04:59:37.318Z,101080.59
2018-07-27T05:00:42.818Z,101080.25
2018-07-27T05:01:48.268Z,101078.47
2018-07-27T05:02:53.780Z,101074.42
2018-07-27T05:03:59.210Z,101078.74
2018-07-27T05:05:04.705Z,101073.03
2018-07-27T05:06:10.217Z,101075.41
2018-07-27T05:07:15.682Z,101075.06
2018-07-27T05:08:21.094Z,101080.19
2018-07-27T05:09:26.576Z,101078.16
2018-07-27T05:10:37.357Z,101081.16
2018-07-27T05:11:43.411Z,101077.94
2018-07-27T05:12:48.869Z,101077.56
2018-07-27T05:13:54.265Z,101078.76
2018-07-27T05:15:02.803Z,101076.50
2018-07-27T05:16:08.417Z,101082.45
2018-07-27T05:17:14.057Z,101077.55
2018-07-27T05:18:19.645Z,101078.74
2018-07-27T05:19:24.998Z,101083.54
2018-07-27T05:20:30.628Z,101082.94
2018-07-27T05:21:36.035Z,101082.33
2018-07-27T05:22:41.787Z,101079.94
2018-07-27T05:23:47.417Z,101087.21
2018-07-27T05:24:52.846Z,101080.64
2018-07-27T05:25:58.325Z,101083.86
2018-07-27T05:27:03.869Z,101077.57
2018-07-27T05:28:09.975Z,101080.05
2018-07-27T05:29:15.622Z,101078.16
2018-07-27T05:30:21.086Z,101074.81
2018-07-27T05:31:26.706Z,101077.17
2018-07-27T05:32:32.185Z,101077.65
2018-07-27T05:33:37.729Z,101075.39
2018-07-27T05:34:43.225Z,101078.73
2018-07-27T05:35:48.691Z,101072.66
2018-07-27T05:36:54.208Z,101075.75
2018-07-27T05:37:59.665Z,101069.89
2018-07-27T05:39:08.705Z,101071.94
2018-07-27T05:40:14.309Z,101073.11
2018-07-27T05:41:19.768Z,101075.87
2018-07-27T05:42:25.236Z,101073.12
2018-07-27T05:43:30.675Z,101074.30
2018-07-27T05:44:36.066Z,101077.84
2018-07-27T05:45:41.724Z,101071.74
2018-07-27T05:46:47.272Z,101072.09
2018-07-27T05:47:52.682Z,101072.77
2018-07-27T05:48:58.255Z,101078.60
2018-07-27T05:50:03.720Z,101073.56
2018-07-27T05:51:09.779Z,101078.18
2018-07-27T05:52:15.374Z,101078.19
2018-07-27T05:53:20.899Z,101084.59
2018-07-27T05:54:26.327Z,101084.14
2018-07-27T05:55:31.834Z,101078.77
2018-07-27T05:56:37.340Z,101078.86
2018-07-27T05:57:43.097Z,101081.23
2018-07-27T05:58:48.729Z,101084.91
2018-07-27T05:59:54.392Z,101083.38
2018-07-27T06:00:59.798Z,101082.23
2018-07-27T06:02:05.260Z,101084.37
2018-07-27T06:03:11.042Z,101086.88
2018-07-27T06:04:16.725Z,101086.30
2018-07-27T06:05:22.155Z,101081.25
2018-07-27T06:06:27.536Z,101088.16
2018-07-27T06:07:33.024Z,101087.05
2018-07-27T06:08:38.535Z,101087.63
2018-07-27T06:09:44.163Z,101084.26
2018-07-27T06:10:49.634Z,101086.98
2018-07-27T06:11:55.131Z,101080.84
2018-07-27T06:13:00.627Z,101083.67
2018-07-27T06:14:06.273Z,101082.84
2018-07-27T06:15:11.970Z,101085.76
2018-07-27T06:16:17.547Z,101080.32
2018-07-27T06:17:23.021Z,101077.80
2018-07-27T06:18:28.492Z,101081.00
2018-07-27T06:19:33.921Z,101087.09
2018-07-27T06:20:39.406Z,101078.58
2018-07-27T06:21:44.957Z,101082.96
2018-07-27T06:22:50.381Z,101080.41
2018-07-27T06:23:55.876Z,101083.04
2018-07-27T06:25:01.262Z,101080.97
2018-07-27T06:26:06.799Z,101072.45
2018-07-27T06:27:12.470Z,101073.84
2018-07-27T06:28:17.987Z,101081.74
2018-07-27T06:29:23.450Z,101073.59
2018-07-27T06:30:28.801Z,101079.16
2018-07-27T06:31:34.338Z,101082.59
2018-07-27T06:32:39.855Z,101079.57
2018-07-27T06:33:45.305Z,101083.95
2018-07-27T06:34:50.741Z,101080.90
2018-07-27T06:35:56.524Z,101092.69
2018-07-27T06:37:01.953Z,101084.91
2018-07-27T06:38:07.505Z,101081.20
2018-07-27T06:39:13.043Z,101084.52
2018-07-27T06:40:18.601Z,101088.47
2018-07-27T06:41:24.037Z,101084.66
2018-07-27T06:42:29.469Z,101085.91
2018-07-27T06:43:34.878Z,101084.88
2018-07-27T06:44:40.504Z,101086.14
2018-07-27T06:45:46.112Z,101084.13
2018-07-27T06:46:52.265Z,101083.27
2018-07-27T06:47:57.710Z,101083.38
2018-07-27T06:49:03.129Z,101080.58
2018-07-27T06:50:08.787Z,101084.48
2018-07-27T06:51:14.464Z,101081.36
2018-07-27T06:52:20.049Z,101080.96
2018-07-27T06:53:25.488Z,101090.11
2018-07-27T06:54:31.220Z,101086.95
2018-07-27T06:55:36.731Z,101081.33
2018-07-27T06:56:42.394Z,101089.03
2018-07-27T06:57:47.906Z,101087.69
2018-07-27T06:58:53.353Z,101086.52
2018-07-27T06:59:58.765Z,101090.75
2018-07-27T07:01:04.208Z,101086.16
2018-07-27T07:02:10.165Z,101086.72
2018-07-27T07:03:15.718Z,101087.45
2018-07-27T07:04:21.137Z,101087.27
2018-07-27T07:05:26.640Z,101082.73
2018-07-27T07:06:32.053Z,101084.45
2018-07-27T07:07:37.485Z,101079.18
2018-07-27T07:08:43.038Z,101080.86
2018-07-27T07:09:48.469Z,101078.31
2018-07-27T07:10:54.005Z,101080.12
2018-07-27T07:11:59.469Z,101083.63
2018-07-27T07:13:04.960Z,101080.84
2018-07-27T07:14:10.561Z,101087.85
2018-07-27T07:15:16.236Z,101085.39
2018-07-27T07:16:21.712Z,101082.33
2018-07-27T07:17:27.148Z,101077.92
2018-07-27T07:18:32.624Z,101079.23
2018-07-27T07:19:38.328Z,101081.55
2018-07-27T07:20:43.883Z,101074.75
2018-07-27T07:21:49.340Z,101078.65
2018-07-27T07:22:54.869Z,101080.91
2018-07-27T07:24:00.814Z,101078.52
2018-07-27T07:25:06.687Z,101082.73
2018-07-27T07:26:12.555Z,101081.16
2018-07-27T07:27:17.761Z,101080.84
2018-07-27T07:28:23.247Z,101082.19
2018-07-27T07:29:28.782Z,101080.44
2018-07-27T07:30:34.277Z,101078.69
2018-07-27T07:31:39.897Z,101073.96
2018-07-27T07:32:45.465Z,101079.84
2018-07-27T07:33:51.235Z,101076.73
2018-07-27T07:34:56.721Z,101069.83
2018-07-27T07:36:02.936Z,101078.29
2018-07-27T07:37:08.413Z,101079.96
2018-07-27T07:38:14.091Z,101074.82
2018-07-27T07:39:19.587Z,101078.46
2018-07-27T07:40:25.842Z,101073.77
2018-07-27T07:41:31.281Z,101082.22
2018-07-27T07:42:36.811Z,101077.75
2018-07-27T07:43:42.737Z,101076.66
2018-07-27T07:44:48.971Z,101079.04
2018-07-27T07:45:55.129Z,101076.83
2018-07-27T07:47:00.724Z,101075.27
2018-07-27T07:48:06.509Z,101077.46
2018-07-27T07:49:12.021Z,101078.30
2018-07-27T07:50:17.475Z,101073.86
2018-07-27T07:51:22.981Z,101074.48
2018-07-27T07:52:28.402Z,101072.36
2018-07-27T07:53:33.824Z,101075.72
2018-07-27T07:54:39.502Z,101069.42
2018-07-27T07:55:45.118Z,101069.62
2018-07-27T07:56:50.590Z,101076.39
2018-07-27T07:57:56.053Z,101075.91
2018-07-27T07:59:01.886Z,101071.13
2018-07-27T08:00:09.259Z,101079.17
2018-07-27T08:01:15.022Z,101076.06
2018-07-27T08:02:20.506Z,101068.59
2018-07-27T08:03:26.012Z,101076.91
2018-07-27T08:04:31.626Z,101070.95
2018-07-27T08:05:37.325Z,101071.16
2018-07-27T08:06:43.142Z,101070.14
2018-07-27T08:07:48.701Z,101070.34
2018-07-27T08:08:54.537Z,101063.28
2018-07-27T08:10:00.015Z,101068.78
2018-07-27T08:11:05.486Z,101071.09
2018-07-27T08:12:11.232Z,101073.42
2018-07-27T08:13:16.987Z,101071.28
2018-07-27T08:14:22.421Z,101072.65
2018-07-27T08:15:27.931Z,101076.63
2018-07-27T08:16:33.354Z,101075.50
2018-07-27T08:17:39.131Z,101072.85
2018-07-27T08:18:45.208Z,101073.66
2018-07-27T08:19:50.688Z,101077.33
2018-07-27T08:20:56.625Z,101071.22
2018-07-27T08:22:02.130Z,101072.39
2018-07-27T08:23:07.712Z,101071.88
2018-07-27T08:24:14.785Z,101067.13
2018-07-27T08:25:20.236Z,101070.28
2018-07-27T08:27:15.678Z,101063.80
2018-07-27T08:28:38.359Z,101064.47
2018-07-27T08:29:46.104Z,101063.99
2018-07-27T08:30:51.572Z,101064.47
2018-07-27T08:31:57.560Z,101072.23
2018-07-27T08:33:03.022Z,101061.63
2018-07-27T08:34:08.709Z,101069.08
2018-07-27T08:35:14.375Z,101067.63
2018-07-27T08:36:19.856Z,101060.17
2018-07-27T08:37:25.325Z,101064.84
2018-07-27T08:38:30.794Z,101065.69
2018-07-27T08:39:40.120Z,101072.98
2018-07-27T08:40:45.669Z,101061.55
2018-07-27T08:41:51.323Z,101060.05
2018-07-27T08:42:56.773Z,101067.36
2018-07-27T08:44:02.331Z,101059.54
2018-07-27T08:45:07.930Z,101055.75
2018-07-27T08:46:13.458Z,101057.07
2018-07-27T08:47:18.933Z,101055.92
2018-07-27T08:48:24.472Z,101058.25
2018-07-27T08:49:29.920Z,101054.61
2018-07-27T08:50:35.393Z,101050.78
2018-07-27T08:51:41.076Z,101056.23
2018-07-27T08:52:46.688Z,101056.28
2018-07-27T08:53:52.116Z,101057.44
2018-07-27T08:54:57.616Z,101053.91
2018-07-27T08:56:03.098Z,101053.11
2018-07-27T08:57:08.708Z,101049.64
2018-07-27T08:58:14.258Z,101056.42
2018-07-27T08:59:19.693Z,101056.11
2018-07-27T09:00:41.802Z,101053.28
2018-07-27T09:01:47.484Z,101045.81
2018-07-27T09:02:53.770Z,101048.15
2018-07-27T09:03:59.275Z,101049.81
2018-07-27T09:05:04.741Z,101044.83
2018-07-27T09:06:10.499Z,101051.45
2018-07-27T09:07:16.849Z,101047.14
2018-07-27T09:08:22.319Z,101044.66
2018-07-27T09:09:27.762Z,101044.33
2018-07-27T09:10:33.245Z,101043.16
2018-07-27T09:11:39.886Z,101034.02
2018-07-27T09:12:45.452Z,101036.34
2018-07-27T09:13:52.159Z,101030.20
2018-07-27T09:14:57.622Z,101030.36
2018-07-27T09:16:03.070Z,101038.31
2018-07-27T09:17:08.780Z,101029.87
2018-07-27T09:18:14.363Z,101028.03
2018-07-27T09:19:19.755Z,101023.69
2018-07-27T09:20:25.704Z,101029.50
2018-07-27T09:21:31.174Z,101021.88
2018-07-27T09:22:37.083Z,101030.32
2018-07-27T09:23:42.732Z,101030.45
2018-07-27T09:24:48.239Z,101037.95
2018-07-27T09:25:53.630Z,101030.64
2018-07-27T09:26:59.016Z,101025.14
2018-07-27T09:28:04.571Z,101036.27
2018-07-27T09:29:11.416Z,101027.46
2018-07-27T09:30:17.505Z,101020.98
2018-07-27T09:31:22.921Z,101021.30
2018-07-27T09:32:28.389Z,101019.30
2018-07-27T09:33:33.912Z,101020.80
2018-07-27T09:34:39.644Z,101019.11
2018-07-27T09:35:45.201Z,101023.72
2018-07-27T09:36:50.609Z,101021.23
2018-07-27T09:37:56.079Z,101018.20
2018-07-27T09:39:01.524Z,101021.20
2018-07-27T09:40:07.130Z,101020.19
2018-07-27T09:41:12.729Z,101017.47
2018-07-27T09:42:18.143Z,101011.16
2018-07-27T09:43:23.586Z,101025.64
2018-07-27T09:44:29.010Z,101017.53
2018-07-27T09:45:34.488Z,101016.79
2018-07-27T09:46:39.991Z,101019.62
2018-07-27T09:47:45.621Z,101013.42
2018-07-27T09:48:51.142Z,101018.69
2018-07-27T09:49:56.609Z,101019.03
2018-07-27T09:51:02.452Z,101014.70
2018-07-27T09:52:08.010Z,101012.18
2018-07-27T09:53:14.263Z,101015.49
2018-07-27T09:54:19.681Z,101018.15
2018-07-27T09:55:25.112Z,101015.49
2018-07-27T09:56:30.585Z,101011.61
2018-07-27T09:57:36.054Z,101011.40
2018-07-27T09:58:41.602Z,101009.70
2018-07-27T09:59:47.089Z,101010.81
2018-07-27T10:00:57.624Z,101009.45
2018-07-27T10:02:03.083Z,101002.48
2018-07-27T10:03:08.776Z,101001.64
2018-07-27T10:04:14.284Z,100998.67
2018-07-27T10:05:19.716Z,101007.85
2018-07-27T10:06:25.151Z,101006.56
2018-07-27T10:07:31.622Z,101002.74
2018-07-27T10:08:37.107Z,100998.07
2018-07-27T10:09:42.968Z,101004.41
2018-07-27T10:10:48.486Z,101007.24
2018-07-27T10:11:53.964Z,100996.74
2018-07-27T10:12:59.459Z,100999.36
2018-07-27T10:14:04.936Z,101003.44
2018-07-27T10:15:11.011Z,100994.95
2018-07-27T10:16:16.534Z,100996.74
2018-07-27T10:17:21.944Z,100996.35
2018-07-27T10:18:27.454Z,100994.76
2018-07-27T10:19:32.876Z,100993.13
2018-07-27T10:20:38.828Z,100995.23
2018-07-27T10:21:44.698Z,100985.73
2018-07-27T10:22:50.209Z,100991.53
2018-07-27T10:23:55.957Z,100979.03
2018-07-27T10:25:01.405Z,100989.50
2018-07-27T10:26:07.400Z,100989.50
2018-07-27T10:27:12.934Z,100998.56
2018-07-27T10:28:18.365Z,100981.38
2018-07-27T10:29:23.824Z,100985.59
2018-07-27T10:30:29.461Z,100987.27
2018-07-27T10:31:34.946Z,100983.73
2018-07-27T10:32:40.785Z,100986.53
2018-07-27T10:33:46.024Z,100986.34
2018-07-27T10:34:51.405Z,100982.95
2018-07-27T10:35:57.067Z,100975.73
2018-07-27T10:37:02.569Z,100972.09
2018-07-27T10:38:08.055Z,100978.87
2018-07-27T10:39:13.842Z,100975.85
2018-07-27T10:40:19.991Z,100973.77
2018-07-27T10:41:25.467Z,100980.69
2018-07-27T10:42:31.035Z,100971.89
2018-07-27T10:43:36.809Z,100977.47
2018-07-27T10:44:42.935Z,100982.84
2018-07-27T10:45:48.461Z,100979.05
2018-07-27T10:46:53.894Z,100978.03
2018-07-27T10:47:59.457Z,100973.84
2018-07-27T10:49:05.045Z,100978.53
2018-07-27T10:50:10.832Z,100980.72
2018-07-27T10:51:16.866Z,100975.32
2018-07-27T10:52:24.049Z,100974.45
2018-07-27T10:53:29.562Z,100971.11
2018-07-27T10:54:34.671Z,100966.42
2018-07-27T10:55:40.280Z,100968.75
2018-07-27T10:56:46.095Z,100966.05
2018-07-27T10:57:51.645Z,100960.16
2018-07-27T10:58:57.095Z,100962.64
2018-07-27T11:00:02.621Z,100963.67
2018-07-27T11:01:09.539Z,100955.97
2018-07-27T11:02:15.160Z,100958.70
2018-07-27T11:03:20.657Z,100955.11
2018-07-27T11:04:26.109Z,100952.55
2018-07-27T11:05:31.592Z,100949.70
2018-07-27T11:06:37.067Z,100951.95
2018-07-27T11:07:43.264Z,100956.02
2018-07-27T11:08:48.727Z,100953.28
2018-07-27T11:09:54.599Z,100950.89
2018-07-27T11:11:00.948Z,100945.50
2018-07-27T11:12:06.477Z,100940.17
2018-07-27T11:13:11.981Z,100947.62
2018-07-27T11:14:17.414Z,100936.81
2018-07-27T11:15:22.950Z,100937.24
2018-07-27T11:16:28.460Z,100939.41
2018-07-27T11:17:33.947Z,100935.84
2018-07-27T11:18:39.440Z,100936.29
2018-07-27T11:19:44.938Z,100942.13
2018-07-27T11:20:50.407Z,100939.42
2018-07-27T11:21:55.905Z,100930.74
2018-07-27T11:23:01.444Z,100927.03
2018-07-27T11:24:07.128Z,100925.88
2018-07-27T11:25:12.938Z,100931.44
2018-07-27T11:26:18.402Z,100927.20
2018-07-27T11:27:23.852Z,100922.95
2018-07-27T11:28:29.277Z,100928.06
2018-07-27T11:29:34.701Z,100924.04
2018-07-27T11:30:40.377Z,100929.58
2018-07-27T11:31:45.954Z,100932.06
2018-07-27T11:32:51.586Z,100929.37
2018-07-27T11:33:57.203Z,100920.83
2018-07-27T11:35:02.706Z,100915.63
2018-07-27T11:36:08.491Z,100919.86
2018-07-27T11:37:15.251Z,100909.90
2018-07-27T11:38:21.015Z,100908.66
2018-07-27T11:39:26.718Z,100913.69
2018-07-27T11:40:32.790Z,100912.05
2018-07-27T11:41:38.638Z,100915.36
2018-07-27T11:42:44.249Z,100909.20
2018-07-27T11:43:49.890Z,100914.41
2018-07-27T11:44:55.689Z,100913.95
2018-07-27T11:46:01.158Z,100906.62
2018-07-27T11:47:07.238Z,100898.39
2018-07-27T11:48:12.773Z,100906.21
2018-07-27T11:49:18.821Z,100906.94
2018-07-27T11:50:24.424Z,100904.09
2018-07-27T11:51:29.889Z,100901.40
2018-07-27T11:52:35.460Z,100899.38
2018-07-27T11:53:41.237Z,100892.80
2018-07-27T11:54:47.089Z,100895.76
2018-07-27T11:55:53.303Z,100898.13
2018-07-27T11:56:58.878Z,100899.30
2018-07-27T11:58:04.505Z,100898.57
2018-07-27T11:59:10.210Z,100895.33
2018-07-27T12:00:16.375Z,100887.73
2018-07-27T12:01:22.129Z,100889.45
2018-07-27T12:02:27.649Z,100883.75
2018-07-27T12:03:33.113Z,100873.38
2018-07-27T12:04:41.578Z,100873.56
2018-07-27T12:05:47.186Z,100874.19
2018-07-27T12:06:54.677Z,100872.57
2018-07-27T12:08:00.401Z,100874.01
2018-07-27T12:09:11.379Z,100871.05
2018-07-27T12:10:17.539Z,100867.41
2018-07-27T12:11:23.114Z,100864.81
2018-07-27T12:12:28.682Z,100868.13
2018-07-27T12:13:34.368Z,100862.89
2018-07-27T12:14:40.178Z,100865.56
2018-07-27T12:15:45.481Z,100868.58
2018-07-27T12:16:50.973Z,100863.55
2018-07-27T12:17:56.543Z,100872.09
2018-07-27T12:19:02.352Z,100873.23
2018-07-27T12:20:08.065Z,100870.86
2018-07-27T12:21:13.936Z,100866.39
2018-07-27T12:22:19.553Z,100863.99
2018-07-27T12:23:26.213Z,100866.28
2018-07-27T12:24:32.257Z,100858.47
2018-07-27T12:25:40.021Z,100859.29
2018-07-27T12:26:46.201Z,100864.39
2018-07-27T12:27:51.931Z,100864.39
2018-07-27T12:28:57.612Z,100857.95
2018-07-27T12:30:03.406Z,100851.81
2018-07-27T12:31:10.066Z,100848.26